createdAt,value
2022-10-12T00:00:56.965Z,97728.97
2022-10-12T00:03:23.687Z,97727.84
2022-10-12T00:06:01.956Z,97731.78
2022-10-12T00:08:29.256Z,97739.13
2022-10-12T00:10:55.797Z,97738.09
2022-10-12T00:13:22.375Z,97737.50
2022-10-12T00:15:49.515Z,97736.44
2022-10-12T00:18:16.094Z,97735.19
2022-10-12T00:20:42.650Z,97734.25
2022-10-12T00:23:09.157Z,97735.84
2022-10-12T00:25:37.756Z,97738.28
2022-10-12T00:28:04.817Z,97736.31
2022-10-12T00:30:31.352Z,97735.38
2022-10-12T00:32:58.128Z,97734.75
2022-10-12T00:35:25.148Z,97724.22
2022-10-12T00:37:55.469Z,97733.41
2022-10-12T00:40:23.225Z,97733.41
2022-10-12T00:42:49.712Z,97732.28
2022-10-12T00:45:16.522Z,97731.03
2022-10-12T00:47:56.597Z,97723.81
2022-10-12T00:50:25.907Z,97723.22
2022-10-12T00:53:05.738Z,97721.63
2022-10-12T00:55:41.622Z,97725.19
2022-10-12T00:58:09.056Z,97722.56
2022-10-12T01:00:36.876Z,97724.25
2022-10-12T01:03:04.603Z,97723.16
2022-10-12T01:05:31.111Z,97724.00
2022-10-12T01:07:59.723Z,97729.22
2022-10-12T01:10:26.843Z,97723.94
2022-10-12T01:12:53.407Z,97727.00
2022-10-12T01:15:20.038Z,97724.53
2022-10-12T01:18:19.776Z,97720.13
2022-10-12T01:20:52.229Z,97724.53
2022-10-12T01:23:36.244Z,97715.25
2022-10-12T01:26:08.575Z,97723.25
2022-10-12T01:28:50.275Z,97719.69
2022-10-12T01:31:35.346Z,97718.94
2022-10-12T01:34:20.237Z,97718.59
2022-10-12T01:36:57.900Z,97706.72
2022-10-12T01:39:44.741Z,97710.72
2022-10-12T01:42:17.847Z,97710.50
2022-10-12T01:44:44.421Z,97704.88
2022-10-12T01:47:11.015Z,97712.47
2022-10-12T01:49:38.052Z,97703.88
2022-10-12T01:52:19.228Z,97710.09
2022-10-12T01:55:15.811Z,97703.97
2022-10-12T01:58:19.767Z,97713.28
2022-10-12T02:01:13.142Z,97711.41
2022-10-12T02:04:02.499Z,97707.06
2022-10-12T02:06:37.456Z,97702.19
2022-10-12T02:09:09.686Z,97717.56
2022-10-12T02:11:39.583Z,97697.28
2022-10-12T02:14:18.682Z,97706.66
2022-10-12T02:16:58.111Z,97707.50
2022-10-12T02:19:32.493Z,97706.09
2022-10-12T02:22:04.647Z,97706.38
2022-10-12T02:24:33.508Z,97707.50
2022-10-12T02:27:01.371Z,97709.69
2022-10-12T02:29:35.826Z,97704.63
2022-10-12T02:32:43.993Z,97705.34
2022-10-12T02:35:22.955Z,97710.81
2022-10-12T02:38:02.018Z,97708.06
2022-10-12T02:40:55.544Z,97704.13
2022-10-12T02:43:43.902Z,97711.94
2022-10-12T02:46:11.602Z,97710.91
2022-10-12T02:48:40.172Z,97706.19
2022-10-12T02:51:09.173Z,97711.16
2022-10-12T02:53:36.025Z,97704.94
2022-10-12T02:56:11.668Z,97708.97
2022-10-12T02:58:38.656Z,97706.44
2022-10-12T03:01:05.748Z,97706.66
2022-10-12T03:03:32.321Z,97697.31
2022-10-12T03:05:58.801Z,97698.19
2022-10-12T03:08:25.285Z,97701.56
2022-10-12T03:10:51.838Z,97703.56
2022-10-12T03:13:18.353Z,97704.41
2022-10-12T03:15:44.936Z,97707.34
2022-10-12T03:18:11.488Z,97705.63
2022-10-12T03:20:37.945Z,97710.25
2022-10-12T03:23:04.469Z,97712.06
2022-10-12T03:25:31.128Z,97715.81
2022-10-12T03:27:58.731Z,97709.69
2022-10-12T03:30:25.219Z,97703.38
2022-10-12T03:32:51.748Z,97703.38
2022-10-12T03:35:18.250Z,97703.47
2022-10-12T03:37:44.705Z,97710.06
2022-10-12T03:40:11.650Z,97706.31
2022-10-12T03:42:38.170Z,97704.31
2022-10-12T03:45:05.061Z,97711.09
2022-10-12T03:47:31.534Z,97711.66
2022-10-12T03:49:58.077Z,97719.75
2022-10-12T03:52:24.533Z,97719.97
2022-10-12T03:54:51.001Z,97717.03
2022-10-12T03:57:17.482Z,97716.84
2022-10-12T03:59:43.981Z,97716.34
2022-10-12T04:02:15.828Z,97713.81
2022-10-12T04:04:43.725Z,97712.22
2022-10-12T04:07:10.358Z,97710.81
2022-10-12T04:09:36.832Z,97711.19
2022-10-12T04:12:03.328Z,97717.91
2022-10-12T04:14:29.922Z,97713.19
2022-10-12T04:16:56.606Z,97717.34
2022-10-12T04:19:23.090Z,97719.03
2022-10-12T04:21:49.534Z,97717.34
2022-10-12T04:24:16.068Z,97719.78
2022-10-12T04:26:42.524Z,97713.09
2022-10-12T04:29:11.192Z,97722.97
2022-10-12T04:31:37.797Z,97713.25
2022-10-12T04:34:04.294Z,97718.16
2022-10-12T04:36:30.955Z,97719.97
2022-10-12T04:39:01.033Z,97712.44
2022-10-12T04:41:28.287Z,97718.63
2022-10-12T04:43:54.860Z,97718.47
2022-10-12T04:46:21.825Z,97720.03
2022-10-12T04:48:48.304Z,97725.13
2022-10-12T04:51:14.753Z,97718.94
2022-10-12T04:53:41.304Z,97717.22
2022-10-12T04:56:08.115Z,97716.34
2022-10-12T04:58:34.876Z,97726.06
2022-10-12T05:01:01.388Z,97719.06
2022-10-12T05:03:27.963Z,97726.25
2022-10-12T05:05:54.413Z,97720.88
2022-10-12T05:08:20.942Z,97717.69
2022-10-12T05:10:47.483Z,97727.41
2022-10-12T05:13:14.606Z,97725.69
2022-10-12T05:15:42.742Z,97727.66
2022-10-12T05:18:09.207Z,97730.69
2022-10-12T05:20:36.049Z,97726.38
2022-10-12T05:23:02.597Z,97728.81
2022-10-12T05:25:31.866Z,97735.22
2022-10-12T05:27:58.357Z,97731.81
2022-10-12T05:30:24.940Z,97734.56
2022-10-12T05:32:51.404Z,97740.41
2022-10-12T05:35:17.945Z,97747.53
2022-10-12T05:37:44.494Z,97746.34
2022-10-12T05:40:11.089Z,97751.41
2022-10-12T05:42:37.934Z,97754.16
2022-10-12T05:45:05.261Z,97748.97
2022-10-12T05:47:31.795Z,97750.28
2022-10-12T05:49:58.264Z,97745.09
2022-10-12T05:52:24.767Z,97741.28
2022-10-12T05:54:51.251Z,97752.63
2022-10-12T05:57:17.841Z,97746.78
2022-10-12T05:59:44.346Z,97745.16
2022-10-12T06:02:15.799Z,97752.69
2022-10-12T06:04:42.782Z,97747.13
2022-10-12T06:07:09.546Z,97753.44
2022-10-12T06:09:39.013Z,97756.28
2022-10-12T06:12:07.024Z,97751.72
2022-10-12T06:14:33.588Z,97744.09
2022-10-12T06:17:00.163Z,97749.72
2022-10-12T06:19:26.640Z,97760.22
2022-10-12T06:21:53.092Z,97751.59
2022-10-12T06:24:19.653Z,97759.75
2022-10-12T06:26:46.112Z,97752.63
2022-10-12T06:29:12.625Z,97746.22
2022-10-12T06:31:39.957Z,97755.03
2022-10-12T06:34:06.667Z,97762.44
2022-10-12T06:36:33.167Z,97757.59
2022-10-12T06:38:59.630Z,97774.28
2022-10-12T06:41:26.118Z,97763.47
2022-10-12T06:43:52.624Z,97774.34
2022-10-12T06:46:19.107Z,97779.84
2022-10-12T06:48:45.587Z,97787.56
2022-10-12T06:51:12.078Z,97772.84
2022-10-12T06:53:38.572Z,97777.47
2022-10-12T06:56:07.220Z,97779.59
2022-10-12T06:58:33.772Z,97780.69
2022-10-12T07:01:08.434Z,97789.25
2022-10-12T07:03:35.036Z,97789.13
2022-10-12T07:06:09.835Z,97790.72
2022-10-12T07:08:36.660Z,97793.25
2022-10-12T07:11:07.975Z,97789.69
2022-10-12T07:13:34.759Z,97787.94
2022-10-12T07:16:01.488Z,97789.50
2022-10-12T07:18:27.977Z,97788.63
2022-10-12T07:20:58.549Z,97794.19
2022-10-12T07:23:25.627Z,97785.06
2022-10-12T07:25:53.386Z,97786.25
2022-10-12T07:28:20.739Z,97791.78
2022-10-12T07:30:48.168Z,97789.72
2022-10-12T07:33:14.699Z,97786.78
2022-10-12T07:36:03.365Z,97791.06
2022-10-12T07:38:27.805Z,97789.38
2022-10-12T07:40:54.448Z,97788.53
2022-10-12T07:43:20.957Z,97789.00
2022-10-12T07:45:47.471Z,97794.53
2022-10-12T07:48:13.953Z,97783.25
2022-10-12T07:50:40.429Z,97797.00
2022-10-12T07:53:06.940Z,97794.78
2022-10-12T07:55:33.567Z,97798.09
2022-10-12T07:58:00.244Z,97802.09
2022-10-12T08:00:27.939Z,97802.47
2022-10-12T08:02:54.494Z,97796.22
2022-10-12T08:05:21.371Z,97800.75
2022-10-12T08:07:49.376Z,97798.88
2022-10-12T08:10:17.525Z,97800.56
2022-10-12T08:12:48.478Z,97801.34
2022-10-12T08:15:18.460Z,97802.97
2022-10-12T08:17:44.951Z,97806.44
2022-10-12T08:20:11.660Z,97808.00
2022-10-12T08:22:38.181Z,97808.63
2022-10-12T08:25:05.399Z,97806.34
2022-10-12T08:27:31.988Z,97808.09
2022-10-12T08:29:58.606Z,97799.97
2022-10-12T08:32:25.500Z,97802.31
2022-10-12T08:34:52.068Z,97799.75
2022-10-12T08:37:18.563Z,97800.69
2022-10-12T08:39:45.035Z,97799.78
2022-10-12T08:42:16.504Z,97806.69
2022-10-12T08:44:58.761Z,97802.63
2022-10-12T08:47:30.020Z,97800.47
2022-10-12T08:49:56.789Z,97798.78
2022-10-12T08:52:33.687Z,97797.22
2022-10-12T08:55:34.984Z,97799.97
2022-10-12T08:58:02.275Z,97805.25
2022-10-12T09:03:15.510Z,97808.91
2022-10-12T09:06:11.659Z,97807.81
2022-10-12T09:08:44.153Z,97813.75
2022-10-12T09:11:32.766Z,97802.47
2022-10-12T09:14:23.765Z,97811.56
2022-10-12T09:16:51.901Z,97805.56
2022-10-12T09:19:34.842Z,97803.69
2022-10-12T09:22:03.258Z,97799.56
2022-10-12T09:24:36.082Z,97801.78
2022-10-12T09:27:14.835Z,97804.59
2022-10-12T09:29:45.002Z,97805.47
2022-10-12T09:32:59.063Z,97805.19
2022-10-12T09:35:25.622Z,97809.94
2022-10-12T09:37:53.853Z,97804.91
2022-10-12T09:40:25.183Z,97802.56
2022-10-12T09:42:53.719Z,97803.38
2022-10-12T09:45:22.656Z,97803.59
2022-10-12T09:48:28.155Z,97802.56
2022-10-12T09:50:58.724Z,97804.47
2022-10-12T09:53:40.512Z,97806.09
2022-10-12T09:56:27.663Z,97801.88
2022-10-12T09:58:58.734Z,97805.56
2022-10-12T10:01:30.446Z,97796.34
2022-10-12T10:04:11.814Z,97802.13
2022-10-12T10:06:40.853Z,97802.69
2022-10-12T10:09:36.262Z,97794.91
2022-10-12T10:12:13.739Z,97799.59
2022-10-12T10:14:43.870Z,97801.03
2022-10-12T10:17:15.670Z,97794.97
2022-10-12T10:19:49.331Z,97794.91
2022-10-12T10:22:16.530Z,97798.75
2022-10-12T10:24:43.269Z,97808.88
2022-10-12T10:27:28.240Z,97804.53
2022-10-12T10:30:28.579Z,97810.00
2022-10-12T10:33:11.877Z,97802.69
2022-10-12T10:35:38.515Z,97808.16
2022-10-12T10:38:05.131Z,97800.75
2022-10-12T10:40:33.405Z,97796.50
2022-10-12T10:43:06.521Z,97802.47
2022-10-12T10:45:40.711Z,97805.56
2022-10-12T10:48:15.755Z,97801.50
2022-10-12T10:50:44.750Z,97798.38
2022-10-12T10:53:25.730Z,97803.53
2022-10-12T10:56:03.212Z,97803.78
2022-10-12T10:58:38.395Z,97792.38
2022-10-12T11:01:20.689Z,97800.84
2022-10-12T11:03:57.418Z,97788.19
2022-10-12T11:06:31.936Z,97785.06
2022-10-12T11:09:16.069Z,97782.81
2022-10-12T11:11:46.137Z,97780.41
2022-10-12T11:14:19.533Z,97779.59
2022-10-12T11:16:45.929Z,97779.06
2022-10-12T11:19:29.613Z,97778.19
2022-10-12T11:22:00.794Z,97769.13
2022-10-12T11:24:35.887Z,97775.22
2022-10-12T11:27:10.636Z,97776.53
2022-10-12T11:29:38.136Z,97773.22
2022-10-12T11:32:23.021Z,97769.06
2022-10-12T11:34:59.908Z,97768.22
2022-10-12T11:37:50.734Z,97769.66
2022-10-12T11:40:41.556Z,97769.47
2022-10-12T11:43:19.535Z,97760.41
2022-10-12T11:45:50.487Z,97768.72
2022-10-12T11:48:27.123Z,97760.06
2022-10-12T11:51:01.315Z,97769.75
2022-10-12T11:53:45.381Z,97764.56
2022-10-12T11:56:20.907Z,97759.22
2022-10-12T11:59:04.512Z,97761.56
2022-10-12T12:01:55.862Z,97750.72
2022-10-12T12:07:48.963Z,97750.00
2022-10-12T12:10:27.872Z,97749.28
2022-10-12T12:13:13.312Z,97752.50
2022-10-12T12:16:02.808Z,97749.78
2022-10-12T12:18:33.974Z,97749.78
2022-10-12T12:21:09.374Z,97752.47
2022-10-12T12:23:40.409Z,97743.63
2022-10-12T12:26:15.701Z,97746.66
2022-10-12T12:28:48.505Z,97743.03
2022-10-12T12:31:18.083Z,97744.28
2022-10-12T12:33:48.085Z,97741.06
2022-10-12T12:36:28.630Z,97741.78
2022-10-12T12:38:55.907Z,97739.25
2022-10-12T12:41:27.584Z,97741.41
2022-10-12T12:43:59.409Z,97740.84
2022-10-12T12:46:47.361Z,97738.63
2022-10-12T12:49:46.154Z,97738.59
2022-10-12T12:52:26.485Z,97733.94
2022-10-12T12:55:07.986Z,97739.69
2022-10-12T12:57:57.532Z,97744.81
2022-10-12T13:00:26.419Z,97745.69
2022-10-12T13:02:55.570Z,97743.44
2022-10-12T13:06:09.505Z,97734.50
2022-10-12T13:08:41.949Z,97739.50
2022-10-12T13:11:36.728Z,97733.56
2022-10-12T13:14:05.938Z,97732.50
2022-10-12T13:17:30.204Z,97736.91
2022-10-12T13:19:25.882Z,97728.09
2022-10-12T13:21:55.573Z,97733.72
2022-10-12T13:25:03.961Z,97729.56
2022-10-12T13:27:52.952Z,97729.03
2022-10-12T13:30:28.540Z,97724.97
2022-10-12T13:33:02.072Z,97723.78
2022-10-12T13:35:38.620Z,97722.50
2022-10-12T13:38:14.020Z,97725.16
2022-10-12T13:40:44.774Z,97724.09
2022-10-12T13:43:40.325Z,97725.28
2022-10-12T13:46:07.199Z,97720.09
2022-10-12T13:48:58.148Z,97720.91
2022-10-12T13:51:24.133Z,97725.22
2022-10-12T13:53:50.637Z,97723.22
2022-10-12T13:56:30.091Z,97724.34
2022-10-12T13:59:05.345Z,97718.44
2022-10-12T14:01:48.140Z,97718.44
2022-10-12T14:04:14.753Z,97718.75
2022-10-12T14:06:41.246Z,97720.03
2022-10-12T14:09:29.570Z,97711.72
2022-10-12T14:11:56.922Z,97714.00
2022-10-12T14:14:32.402Z,97703.16
2022-10-12T14:16:59.611Z,97703.94
2022-10-12T14:19:49.097Z,97709.25
2022-10-12T14:22:23.697Z,97703.16
2022-10-12T14:24:54.108Z,97700.41
2022-10-12T14:27:28.562Z,97701.03
2022-10-12T14:30:07.322Z,97699.09
2022-10-12T14:32:40.892Z,97701.22
2022-10-12T14:35:23.680Z,97695.66
2022-10-12T14:37:52.353Z,97697.63
2022-10-12T14:40:39.441Z,97707.00
2022-10-12T14:43:11.933Z,97700.97
2022-10-12T14:45:38.606Z,97705.00
2022-10-12T14:48:08.984Z,97704.75
2022-10-12T14:50:35.552Z,97702.28
2022-10-12T14:53:04.788Z,97700.75
2022-10-12T14:55:33.741Z,97702.56
2022-10-12T14:58:00.554Z,97698.91
2022-10-12T15:00:27.009Z,97697.25
2022-10-12T15:02:53.749Z,97696.69
2022-10-12T15:05:23.037Z,97694.63
2022-10-12T15:07:50.240Z,97689.78
2022-10-12T15:10:18.988Z,97692.91
2022-10-12T15:12:46.610Z,97695.69
2022-10-12T15:15:28.975Z,97699.13
2022-10-12T15:17:58.674Z,97689.81
2022-10-12T15:20:26.892Z,97692.47
2022-10-12T15:22:54.807Z,97686.13
2022-10-12T15:25:39.242Z,97688.06
2022-10-12T15:28:05.900Z,97693.00
2022-10-12T23:35:55.625Z,97699.88
2022-10-12T23:38:22.292Z,97701.03
2022-10-12T23:40:48.792Z,97701.97
2022-10-12T23:43:15.291Z,97701.88
2022-10-12T23:45:43.700Z,97694.25
2022-10-12T23:48:10.713Z,97702.38
2022-10-12T23:50:38.410Z,97690.03
2022-10-12T23:53:06.085Z,97695.09
2022-10-12T23:55:33.236Z,97700.50
2022-10-12T23:57:59.866Z,97699.00
